Seabulk Arctic — WCY7054 — position and weather

sailwx.info

Track history (hours):
 
Tides and Currents Weather Stations Pressure Air Temp Water Temp Dewpoint Dewpoint Depression Visibility Wind Speed Wind Dir Waves Ship Positions

Seabulk Arctic

More information available from US FCC via Universal Licensing System and Coast Guard Vessel Documentation Center.

Last reported at 2014-Jul-29 11:23 UTC. Time now 2014-Jul-29 16:54 UTC.
Position N 29°48' W 093°57'.

Type: Tanker. MMSI: 366826000.

Date/timePositionNaut miles runAvg speedWind from/ knotsBaromVisibWave heightAir tempDewpointWater temp
2014-Jul-29 11:23N 29°48' W 093°57'  
2014-Jul-24 18:00N 25°24' W 084°48'22812.7 180 / 51015.810.8 0.532.0
2014-Jul-24 00:00N 24°36' W 080°42'79 9.2 130 / 5 10.8 0.5
2014-Jul-23 15:25N 25°43' W 079°56'910.4
2014-Jul-23 14:33N 25°52' W 079°59'1111.4
2014-Jul-23 13:33N 26°03' W 080°03'5 4.5
2014-Jul-23 12:31N 26°05' W 080°07'0 0.0
2014-Jul-23 11:31N 26°05' W 080°07'0 0.0
2014-Jul-23 10:31N 26°05' W 080°07'0 0.0
2014-Jul-23 09:22N 26°05' W 080°07'0 0.0
2014-Jul-23 08:25N 26°05' W 080°07'0 0.0
2014-Jul-23 07:25N 26°05' W 080°07'0 0.0
2014-Jul-23 06:25N 26°05' W 080°07'0 0.0
2014-Jul-23 05:28N 26°05' W 080°07'0 0.0
2014-Jul-23 04:28N 26°05' W 080°07'0 0.0
2014-Jul-23 03:28N 26°05' W 080°07'0 0.0
2014-Jul-23 02:31N 26°05' W 080°07'0 0.0
2014-Jul-23 01:31N 26°05' W 080°07'0 0.0
2014-Jul-23 00:31N 26°05' W 080°07'0 0.0
2014-Jul-22 23:31N 26°05' W 080°07'0 0.0
2014-Jul-22 22:31N 26°05' W 080°07'0 0.0
2014-Jul-22 21:31N 26°05' W 080°07'0 0.0
2014-Jul-22 20:31N 26°05' W 080°07'0 0.0
2014-Jul-22 19:22N 26°05' W 080°07'0 0.0
2014-Jul-22 18:25N 26°05' W 080°07'0 0.0
2014-Jul-22 17:25N 26°05' W 080°07'0 0.0
2014-Jul-22 16:25N 26°05' W 080°07'0 0.0
2014-Jul-22 15:28N 26°05' W 080°07'0 0.0
2014-Jul-22 14:28N 26°05' W 080°07'0 0.0
2014-Jul-22 13:28N 26°05' W 080°07'0 0.0
2014-Jul-22 12:31N 26°05' W 080°07'0 0.0
2014-Jul-22 11:31N 26°05' W 080°07'0 0.0
2014-Jul-22 10:31N 26°05' W 080°07'0 0.0
2014-Jul-22 09:31N 26°05' W 080°07'0 0.0
2014-Jul-22 08:31N 26°05' W 080°07'0 0.0
2014-Jul-22 07:31N 26°05' W 080°07'0 0.0
2014-Jul-22 06:31N 26°05' W 080°07'0 0.0
2014-Jul-22 05:22N 26°05' W 080°07'0 0.0
2014-Jul-22 04:19N 26°05' W 080°07'0 0.0
2014-Jul-22 03:25N 26°05' W 080°07'0 0.0
2014-Jul-22 02:22N 26°05' W 080°07'0 0.0
2014-Jul-22 01:25N 26°05' W 080°07'0 0.0
2014-Jul-22 00:28N 26°05' W 080°07'0 0.0
2014-Jul-21 23:28N 26°05' W 080°07'0 0.0
2014-Jul-21 22:31N 26°05' W 080°07'0 0.0
2014-Jul-21 21:31N 26°05' W 080°07'0 0.0
2014-Jul-21 20:31N 26°05' W 080°07'0 0.0
2014-Jul-21 20:16N 26°05' W 080°07'0 0.0
2014-Jul-21 19:28N 26°05' W 080°07'0 0.0
2014-Jul-21 18:31N 26°05' W 080°07'0 0.0
2014-Jul-21 17:31N 26°05' W 080°07'0 0.0
2014-Jul-21 16:31N 26°05' W 080°07'0 0.0
2014-Jul-21 15:31N 26°05' W 080°07'0 0.0
2014-Jul-21 14:26N 26°05' W 080°07'4 4.7
2014-Jul-21 13:33N 26°05' W 080°03'7 6.6
2014-Jul-21 12:33N 25°59' W 080°00'1010.2
2014-Jul-21 11:33N 26°09' W 079°59'9 8.6
2014-Jul-21 10:33N 26°18' W 079°57'1413.8
2014-Jul-21 09:33N 26°04' W 079°55'1313.2
2014-Jul-21 08:34N 25°51' W 079°57'42913.2
2014-Jul-20 00:00N 26°00' W 087°54'   080 / 5 10.8 0.5
Track history (hours):
 
Tides and Currents Weather Stations Pressure Air Temp Water Temp Dewpoint Dewpoint Depression Visibility Wind Speed Wind Dir Waves Ship Positions

Seabulk Arctic

More information available from US FCC via Universal Licensing System and Coast Guard Vessel Documentation Center.

Last reported at 2014-Jul-29 11:23 UTC. Time now 2014-Jul-29 16:54 UTC.
Position N 29°48' W 093°57'.

Type: Tanker. MMSI: 366826000.

Date/timePositionNaut miles runAvg speedWind from/ knotsBaromVisibWave heightAir tempDewpointWater temp
2014-Jul-29 11:23N 29°48' W 093°57'  
2014-Jul-24 18:00N 25°24' W 084°48'22812.7 180 / 51015.810.8 0.532.0
2014-Jul-24 00:00N 24°36' W 080°42'79 9.2 130 / 5 10.8 0.5
2014-Jul-23 15:25N 25°43' W 079°56'910.4
2014-Jul-23 14:33N 25°52' W 079°59'1111.4
2014-Jul-23 13:33N 26°03' W 080°03'5 4.5
2014-Jul-23 12:31N 26°05' W 080°07'0 0.0
2014-Jul-23 11:31N 26°05' W 080°07'0 0.0
2014-Jul-23 10:31N 26°05' W 080°07'0 0.0
2014-Jul-23 09:22N 26°05' W 080°07'0 0.0
2014-Jul-23 08:25N 26°05' W 080°07'0 0.0
2014-Jul-23 07:25N 26°05' W 080°07'0 0.0
2014-Jul-23 06:25N 26°05' W 080°07'0 0.0
2014-Jul-23 05:28N 26°05' W 080°07'0 0.0
2014-Jul-23 04:28N 26°05' W 080°07'0 0.0
2014-Jul-23 03:28N 26°05' W 080°07'0 0.0
2014-Jul-23 02:31N 26°05' W 080°07'0 0.0
2014-Jul-23 01:31N 26°05' W 080°07'0 0.0
2014-Jul-23 00:31N 26°05' W 080°07'0 0.0
2014-Jul-22 23:31N 26°05' W 080°07'0 0.0
2014-Jul-22 22:31N 26°05' W 080°07'0 0.0
2014-Jul-22 21:31N 26°05' W 080°07'0 0.0
2014-Jul-22 20:31N 26°05' W 080°07'0 0.0
2014-Jul-22 19:22N 26°05' W 080°07'0 0.0
2014-Jul-22 18:25N 26°05' W 080°07'0 0.0
2014-Jul-22 17:25N 26°05' W 080°07'0 0.0
2014-Jul-22 16:25N 26°05' W 080°07'0 0.0
2014-Jul-22 15:28N 26°05' W 080°07'0 0.0
2014-Jul-22 14:28N 26°05' W 080°07'0 0.0
2014-Jul-22 13:28N 26°05' W 080°07'0 0.0
2014-Jul-22 12:31N 26°05' W 080°07'0 0.0
2014-Jul-22 11:31N 26°05' W 080°07'0 0.0
2014-Jul-22 10:31N 26°05' W 080°07'0 0.0
2014-Jul-22 09:31N 26°05' W 080°07'0 0.0
2014-Jul-22 08:31N 26°05' W 080°07'0 0.0
2014-Jul-22 07:31N 26°05' W 080°07'0 0.0
2014-Jul-22 06:31N 26°05' W 080°07'0 0.0
2014-Jul-22 05:22N 26°05' W 080°07'0 0.0
2014-Jul-22 04:19N 26°05' W 080°07'0 0.0
2014-Jul-22 03:25N 26°05' W 080°07'0 0.0
2014-Jul-22 02:22N 26°05' W 080°07'0 0.0
2014-Jul-22 01:25N 26°05' W 080°07'0 0.0
2014-Jul-22 00:28N 26°05' W 080°07'0 0.0
2014-Jul-21 23:28N 26°05' W 080°07'0 0.0
2014-Jul-21 22:31N 26°05' W 080°07'0 0.0
2014-Jul-21 21:31N 26°05' W 080°07'0 0.0
2014-Jul-21 20:31N 26°05' W 080°07'0 0.0
2014-Jul-21 20:16N 26°05' W 080°07'0 0.0
2014-Jul-21 19:28N 26°05' W 080°07'0 0.0
2014-Jul-21 18:31N 26°05' W 080°07'0 0.0
2014-Jul-21 17:31N 26°05' W 080°07'0 0.0
2014-Jul-21 16:31N 26°05' W 080°07'0 0.0
2014-Jul-21 15:31N 26°05' W 080°07'0 0.0
2014-Jul-21 14:26N 26°05' W 080°07'4 4.7
2014-Jul-21 13:33N 26°05' W 080°03'7 6.6
2014-Jul-21 12:33N 25°59' W 080°00'1010.2
2014-Jul-21 11:33N 26°09' W 079°59'9 8.6
2014-Jul-21 10:33N 26°18' W 079°57'1413.8
2014-Jul-21 09:33N 26°04' W 079°55'1313.2
2014-Jul-21 08:34N 25°51' W 079°57'42913.2
2014-Jul-20 00:00N 26°00' W 087°54'   080 / 5 10.8 0.5

Dump ship's entire track history